Du har inga inställningar för hoppväder.nu

Hoppväder.nu

Senast uppdaterat 02:17

UTC-tid

2018-01-17 kl. 01:17


Sol och måne

Solen går upp 8:51 och går ner 15:59 (beräknade cirkatider)
Nästa fullmåne blir om 14 dagar (2018-01-31)

METAR

ENRY (Moss, Rygge)
(27 minuter sedan)
ENRY 170050Z AUTO VRB01KT 0700NDV R12/P2000D R30/P2000N BKN001/// OVC005/// M01/M02 Q0982=



ESGT (Trollhättan/Vänersborg)
ESGT NIL=



ENTO (Sandefjord)
(27 minuter sedan)
ENTO 170050Z AUTO 35005KT 0200 R18/1100N R36/0800N FZFG VV001 M03/M03 Q0981=



ESIB (Såtenäs)
(27 minuter sedan)
ESIB 170050Z AUTO 16004KT 7000 -FZRASN SCT010/// BKN013/// OVC036/// 00/00 Q0982 REFZDZ=



ESOK (Karlstad)
(27 minuter sedan)
ESOK 170050Z AUTO 12004KT 2000 -RASN OVC001/// 00/00 Q0982=



TAF

ENRY (Moss, Rygge)
(137 minuter sedan)
ENRY 162300Z 1700/1724 VRB05KT 9999 BKN020 PROB40 1700/1707 0500 FZFG VV001 TEMPO 1707/1714 BKN005 PROB30 TEMPO 1721/1724 3000 -SN BKN008=



ESGT (Trollhättan/Vänersborg)
(137 minuter sedan)
ESGT 162300Z NIL=



ENTO (Sandefjord)
(137 minuter sedan)
ENTO 162300Z 1700/1724 34005KT 0100 FZFG VV001 TEMPO 1700/1706 9999 NSW SCT005 BECMG 1706/1709 9999 NSW SCT005 TEMPO 1709/1715 BKN005=



ESIB (Såtenäs)
(317 minuter sedan)
ESIB 162000Z NIL=



ESOK (Karlstad)
(287 minuter sedan)
ESOK 162030Z 1621/1623 15010KT 9999 -RA BKN007 TEMPO 1621/1623 2500 -SNRA BKN004=





Kodnycklar till TAF och METAR






LHP

(Näsinge är område I2b i Norra delen)

Prognos är inte uppdaterad




Spotting

Hur fungerar spotthjälpen och Vindkartan?

Markvind är ca 0 m/s.



Vindkartan

Senast uppdaterad 02:17



All data kommer från LFV.se